Time;durP1;ratioP1;P1;durP2;ratioP2;P2;SDS_P1;SDS_P2;PMS_P1;PMS_P2;Temp;Humidity;BMP_temperature;BMP_pressure;BME280_temperature;BME280_humidity;BME280_pressure;Samples;Min_cycle;Max_cycle;Signal;HPM_P1;HPM_P2
2023/09/02 00:00:56;;;;;;;;;;;;;;;27.71;37.26;101008.41;5063271;28;1277;-33
2023/09/02 00:03:22;;;;;;;;;;;;;;;27.68;37.58;101006.06;5074297;28;1043;-33
2023/09/02 00:05:47;;;;;;;;;;;;;;;27.73;37.07;101014.47;5075405;28;1972;-34
2023/09/02 00:08:13;;;;;;;;;;;;;;;27.75;37.45;101007.03;5075406;28;1047;-33
2023/09/02 00:10:38;;;;;;;;;;;;;;;27.76;37.72;101015.97;5075118;28;1122;-34
2023/09/02 00:13:04;;;;;;;;;;;;;;;27.73;37.16;101014.47;5062380;28;1059;-35
2023/09/02 00:15:30;;;;;;;;;;;;;;;27.81;37.46;101018.97;5064293;28;1031;-35
2023/09/02 00:17:55;;;;;;;;;;;;;;;27.69;37.54;101012.31;5073738;28;1808;-32
2023/09/02 00:20:21;;;;;;;;;;;;;;;27.74;37.55;101015.31;5075743;28;1007;-35
2023/09/02 00:22:46;;;;;;;;;;;;;;;27.74;37.21;101009.91;5070727;28;1031;-30
2023/09/02 00:25:12;;;;;;;;;;;;;;;27.69;37.69;101006.91;5065984;28;1954;-32
2023/09/02 00:27:38;;;;;;;;;;;;;;;27.66;37.85;101002.66;5075129;28;1083;-35
2023/09/02 00:30:04;;;;;;;;;;;;;;;27.71;37.40;101005.69;5075632;28;1043;-33
2023/09/02 00:32:29;;;;;;;;;;;;;;;27.82;37.41;101006.31;5075223;28;900;-32
2023/09/02 00:34:55;;;;;;;;;;;;;;;28.03;37.03;101002.91;5056876;28;1055;-31
2023/09/02 00:37:20;;;;;;;;;;;;;;;27.98;37.12;101005.31;5075490;28;1138;-32
2023/09/02 00:39:46;;;;;;;;;;;;;;;28.14;37.01;101000.78;5075357;28;1047;-33
2023/09/02 00:42:12;;;;;;;;;;;;;;;28.12;36.83;100995.56;5057093;28;1036;-31
2023/09/02 00:44:37;;;;;;;;;;;;;;;28.18;36.98;100999.38;5057375;28;1135;-34
2023/09/02 00:47:03;;;;;;;;;;;;;;;28.19;36.83;100999.22;5052017;28;2407;-34
2023/09/02 00:49:29;;;;;;;;;;;;;;;28.15;37.14;101002.47;5064263;28;1086;-34
2023/09/02 00:51:54;;;;;;;;;;;;;;;28.13;37.56;100999.94;5055376;28;1179;-34
2023/09/02 00:54:20;;;;;;;;;;;;;;;28.22;36.87;101006.13;5075294;28;1016;-37
2023/09/02 00:56:45;;;;;;;;;;;;;;;28.10;37.43;101000.31;5075125;28;1043;-36
2023/09/02 00:59:11;;;;;;;;;;;;;;;28.16;37.52;101004.97;5074970;28;1007;-37
2023/09/02 01:01:37;;;;;;;;;;;;;;;28.17;37.43;101003.13;5056803;28;1172;-35
2023/09/02 01:04:06;;;;;;;;;;;;;;;28.13;37.57;101007.22;5036959;28;1008;-30
2023/09/02 01:06:31;;;;;;;;;;;;;;;28.13;37.76;101004.53;5073063;28;1902;-35
2023/09/02 01:08:57;;;;;;;;;;;;;;;28.24;37.72;101001.38;5056910;28;1052;-34
2023/09/02 01:11:22;;;;;;;;;;;;;;;28.07;37.92;101003.38;5052904;28;1054;-32
2023/09/02 01:13:48;;;;;;;;;;;;;;;28.04;37.85;101006.47;5054993;28;1111;-37
2023/09/02 01:16:14;;;;;;;;;;;;;;;28.18;38.03;101011.03;5074409;28;2390;-34
2023/09/02 01:18:39;;;;;;;;;;;;;;;28.16;37.71;101001.44;5078320;28;1004;-30
2023/09/02 01:21:24;;;;;;;;;;;;;;;28.06;38.15;101009.84;5060425;28;1072;-32
2023/09/02 01:23:55;;;;;;;;;;;;;;;28.15;37.99;100997.91;5046813;28;892;-36
2023/09/02 01:26:33;;;;;;;;;;;;;;;28.01;38.38;100999.53;5066155;28;1906;-32
2023/09/02 01:29:00;;;;;;;;;;;;;;;28.05;38.19;101000.88;5078337;28;1049;-35
2023/09/02 01:31:26;;;;;;;;;;;;;;;28.18;38.20;101002.09;5060602;28;1131;-37
2023/09/02 01:33:52;;;;;;;;;;;;;;;28.18;38.26;101002.94;5062131;28;1027;-33
2023/09/02 01:36:18;;;;;;;;;;;;;;;28.22;38.38;101008.81;5049181;28;1249;-30
2023/09/02 01:38:45;;;;;;;;;;;;;;;28.26;38.07;101004.72;5053763;28;1178;-33
2023/09/02 01:41:10;;;;;;;;;;;;;;;28.21;38.38;101012.56;5049717;28;1122;-36
2023/09/02 01:43:36;;;;;;;;;;;;;;;28.15;38.64;101005.16;5060341;28;1104;-35
2023/09/02 01:46:02;;;;;;;;;;;;;;;28.08;38.65;101005.91;5077855;28;2415;-34
2023/09/02 01:48:28;;;;;;;;;;;;;;;28.17;38.77;101006.69;5027142;28;877;-34
2023/09/02 01:50:53;;;;;;;;;;;;;;;28.10;39.00;101011.97;5049394;28;1102;-33
2023/09/02 01:53:19;;;;;;;;;;;;;;;28.20;38.54;101008.16;5077683;28;1166;-34
2023/09/02 01:55:44;;;;;;;;;;;;;;;28.21;38.56;101016.09;5060011;28;1028;-37
2023/09/02 01:58:10;;;;;;;;;;;;;;;28.07;39.01;101008.78;5043164;28;1136;-35
2023/09/02 02:00:36;;;;;;;;;;;;;;;28.19;38.55;101012.75;5051338;28;1297;-35
2023/09/02 02:03:02;;;;;;;;;;;;;;;28.12;38.60;101006.38;5055185;28;1153;-34
2023/09/02 02:05:39;;;;;;;;;;;;;;;28.17;38.94;101006.69;5059525;28;1963;-36
2023/09/02 02:08:09;;;;;;;;;;;;;;;28.22;38.78;101001.56;5046409;28;1214;-33
2023/09/02 02:10:35;;;;;;;;;;;;;;;28.16;38.96;101007.69;5059174;28;1186;-33
2023/09/02 02:13:02;;;;;;;;;;;;;;;28.10;39.17;101008.44;5046489;28;1027;-33
2023/09/02 02:15:27;;;;;;;;;;;;;;;28.26;38.85;101010.13;5066998;28;1133;-32
2023/09/02 02:17:53;;;;;;;;;;;;;;;28.07;39.42;101009.66;5056563;28;2440;-37
2023/09/02 02:20:21;;;;;;;;;;;;;;;28.10;38.75;101005.72;5059628;28;1151;-37
2023/09/02 02:22:46;;;;;;;;;;;;;;;28.15;39.27;101003.31;5077211;28;1166;-33
2023/09/02 02:25:12;;;;;;;;;;;;;;;28.05;39.59;101002.72;5077381;28;1968;-33
2023/09/02 02:27:37;;;;;;;;;;;;;;;28.07;39.62;101004.22;5076918;28;1184;-34
2023/09/02 02:30:03;;;;;;;;;;;;;;;28.18;39.41;101002.09;5077236;28;1058;-31
2023/09/02 02:32:29;;;;;;;;;;;;;;;28.10;39.33;101000.31;5076970;28;988;-31
2023/09/02 02:34:55;;;;;;;;;;;;;;;28.13;39.59;101002.66;5067264;28;1154;-32
2023/09/02 02:37:21;;;;;;;;;;;;;;;28.15;39.43;100997.91;5041798;28;1197;-35
2023/09/02 02:39:47;;;;;;;;;;;;;;;28.21;39.40;100999.03;5049657;28;1071;-34
2023/09/02 02:42:14;;;;;;;;;;;;;;;28.27;38.97;100992.03;5076887;28;1109;-33
2023/09/02 02:44:40;;;;;;;;;;;;;;;28.28;39.12;101004.56;5077130;28;1000;-31
2023/09/02 02:47:06;;;;;;;;;;;;;;;28.15;39.46;101003.31;5076439;28;2462;-36
2023/09/02 02:49:31;;;;;;;;;;;;;;;28.24;39.26;101014.91;5068185;28;1204;-32
2023/09/02 02:51:57;;;;;;;;;;;;;;;28.16;39.53;101015.78;5048378;28;1115;-36
2023/09/02 02:54:24;;;;;;;;;;;;;;;28.12;39.53;101017.19;5058377;28;1350;-31
2023/09/02 02:56:50;;;;;;;;;;;;;;;28.22;39.68;101016.94;5059020;28;1220;-33
2023/09/02 02:59:17;;;;;;;;;;;;;;;28.15;39.11;101022.25;5076352;28;1126;-36
2023/09/02 03:01:44;;;;;;;;;;;;;;;28.16;39.21;101020.38;5040768;28;1282;-33
2023/09/02 03:04:10;;;;;;;;;;;;;;;28.20;39.45;101027.09;5051245;28;1104;-32
2023/09/02 03:06:35;;;;;;;;;;;;;;;28.12;39.42;101028.03;5076701;28;1905;-37
2023/09/02 03:09:02;;;;;;;;;;;;;;;28.07;39.62;101020.47;5076715;28;1069;-31
2023/09/02 03:11:29;;;;;;;;;;;;;;;28.16;39.70;101031.22;5071621;28;1067;-31
2023/09/02 03:13:56;;;;;;;;;;;;;;;28.07;39.58;101025.88;5050828;28;1294;-35
2023/09/02 03:16:25;;;;;;;;;;;;;;;28.35;39.25;101028.00;5054609;28;1197;-35
2023/09/02 03:18:51;;;;;;;;;;;;;;;28.27;39.07;101033.47;5058901;28;1208;-37
2023/09/02 03:21:17;;;;;;;;;;;;;;;27.82;40.03;101031.47;5058568;28;1229;-35
2023/09/02 03:23:43;;;;;;;;;;;;;;;28.04;39.83;101030.81;5055101;28;1118;-36
2023/09/02 03:26:08;;;;;;;;;;;;;;;27.93;39.87;101029.34;5076793;28;1906;-37
2023/09/02 03:28:35;;;;;;;;;;;;;;;28.39;38.93;101035.75;5058778;28;1206;-36
2023/09/02 03:31:04;;;;;;;;;;;;;;;28.21;38.73;101035.03;5057436;28;1430;-33
2023/09/02 03:33:31;;;;;;;;;;;;;;;28.01;39.36;101040.09;5076147;28;1234;-35
2023/09/02 03:35:56;;;;;;;;;;;;;;;27.90;38.93;101035.97;5052495;28;1234;-36
2023/09/02 03:38:22;;;;;;;;;;;;;;;28.05;39.08;101035.16;5058437;28;1214;-36
2023/09/02 03:40:48;;;;;;;;;;;;;;;28.00;39.38;101041.13;5058048;28;1285;-37
2023/09/02 03:43:13;;;;;;;;;;;;;;;28.21;38.88;101048.53;5056347;28;1258;-37
2023/09/02 03:45:39;;;;;;;;;;;;;;;27.93;39.81;101053.69;5038154;28;1875;-38
2023/09/02 03:48:05;;;;;;;;;;;;;;;26.81;38.17;101049.19;5048082;28;1341;-39
2023/09/02 03:50:31;;;;;;;;;;;;;;;27.14;37.62;101056.34;5044549;28;1331;-38
2023/09/02 03:52:58;;;;;;;;;;;;;;;27.41;37.64;101053.34;5054270;28;1292;-40
2023/09/02 03:55:24;;;;;;;;;;;;;;;27.30;37.52;101052.72;5036363;28;1084;-40
2023/09/02 03:57:51;;;;;;;;;;;;;;;27.30;37.67;101054.56;5055680;28;1213;-37
2023/09/02 04:00:17;;;;;;;;;;;;;;;25.83;39.88;101049.94;5067376;28;1694;-39
2023/09/02 04:02:42;;;;;;;;;;;;;;;25.17;40.67;101050.59;5058026;28;1051;-39
2023/09/02 04:05:09;;;;;;;;;;;;;;;25.02;41.06;101056.59;5049328;28;1922;-35
2023/09/02 04:07:35;;;;;;;;;;;;;;;25.27;40.45;101051.31;5050537;28;1042;-39
2023/09/02 04:10:01;;;;;;;;;;;;;;;25.66;39.52;101060.69;5057477;28;1063;-27
2023/09/02 04:12:26;;;;;;;;;;;;;;;25.97;38.83;101053.84;5057321;28;1272;-29
2023/09/02 04:14:52;;;;;;;;;;;;;;;26.52;38.00;101048.75;5058785;28;1697;-27
2023/09/02 04:17:18;;;;;;;;;;;;;;;26.48;38.15;101051.94;5044530;28;1096;-27
2023/09/02 04:19:45;;;;;;;;;;;;;;;26.53;38.17;101058.53;5075513;28;1062;-27
2023/09/02 04:22:10;;;;;;;;;;;;;;;26.62;38.07;101053.13;5042465;28;2662;-27
2023/09/02 04:24:37;;;;;;;;;;;;;;;26.45;38.92;101055.84;5037814;28;1171;-34
2023/09/02 04:27:03;;;;;;;;;;;;;;;26.87;38.17;101059.28;5056255;28;1914;-30
2023/09/02 04:29:29;;;;;;;;;;;;;;;26.47;38.94;101058.38;5045391;28;1573;-27
2023/09/02 04:31:54;;;;;;;;;;;;;;;26.82;38.20;101053.56;5064380;28;1314;-27
2023/09/02 04:34:23;;;;;;;;;;;;;;;27.00;37.97;101064.13;5057205;28;1347;-30
2023/09/02 04:36:50;;;;;;;;;;;;;;;27.22;36.74;101060.88;5053631;28;1128;-31
2023/09/02 04:39:16;;;;;;;;;;;;;;;27.18;37.35;101063.06;5043997;28;1510;-31
2023/09/02 04:41:42;;;;;;;;;;;;;;;27.04;38.08;101066.53;5045101;28;1273;-29
2023/09/02 04:44:08;;;;;;;;;;;;;;;27.18;37.34;101073.03;5045605;28;1172;-31
2023/09/02 04:46:34;;;;;;;;;;;;;;;27.42;37.79;101061.28;5055383;28;1971;-30
2023/09/02 04:48:59;;;;;;;;;;;;;;;27.85;36.59;101077.06;5050549;28;1595;-28
2023/09/02 04:51:25;;;;;;;;;;;;;;;27.88;36.51;101075.88;5052391;28;1399;-30
2023/09/02 04:53:51;;;;;;;;;;;;;;;28.03;35.92;101075.91;5060978;28;2698;-29
2023/09/02 04:56:17;;;;;;;;;;;;;;;27.99;36.31;101078.13;5060946;28;1566;-26
2023/09/02 04:58:44;;;;;;;;;;;;;;;28.16;35.95;101079.88;5060889;28;1201;-28
2023/09/02 05:01:13;;;;;;;;;;;;;;;28.11;36.38;101072.31;5043133;28;1353;-27
2023/09/02 05:03:42;;;;;;;;;;;;;;;28.15;35.98;101072.78;5037515;28;1357;-32
2023/09/02 05:06:10;;;;;;;;;;;;;;;28.15;36.15;101073.63;5025771;28;1918;-28
2023/09/02 05:08:38;;;;;;;;;;;;;;;27.97;36.83;101072.09;5037416;28;1235;-27
2023/09/02 05:11:04;;;;;;;;;;;;;;;28.07;36.90;101074.56;5024989;28;1226;-26
2023/09/02 05:13:30;;;;;;;;;;;;;;;28.24;37.00;101077.94;5038796;28;1047;-28
2023/09/02 05:15:56;;;;;;;;;;;;;;;28.29;36.82;101071.16;5030333;28;1094;-27
2023/09/02 05:18:22;;;;;;;;;;;;;;;28.31;36.76;101077.22;5031182;28;1848;-27
2023/09/02 05:20:48;;;;;;;;;;;;;;;28.22;37.13;101071.88;5037505;28;1128;-26
2023/09/02 05:23:13;;;;;;;;;;;;;;;28.29;36.74;101065.72;5036566;28;1921;-27
2023/09/02 05:25:39;;;;;;;;;;;;;;;28.34;36.98;101071.47;5024285;28;1968;-28
2023/09/02 05:28:05;;;;;;;;;;;;;;;28.41;36.24;101069.69;5033525;28;1040;-29
2023/09/02 05:30:31;;;;;;;;;;;;;;;28.35;36.88;101065.88;5018924;28;1087;-27
2023/09/02 05:32:57;;;;;;;;;;;;;;;28.36;36.75;101075.66;5018387;28;1119;-26
2023/09/02 05:35:23;;;;;;;;;;;;;;;28.35;37.07;101068.59;5018302;28;1182;-27
2023/09/02 05:37:49;;;;;;;;;;;;;;;28.45;36.76;101067.47;5026612;28;1020;-28
2023/09/02 05:40:14;;;;;;;;;;;;;;;28.42;36.83;101071.38;5036249;28;1147;-27
2023/09/02 05:42:40;;;;;;;;;;;;;;;28.51;37.01;101072.13;5018078;28;1088;-25
2023/09/02 05:45:06;;;;;;;;;;;;;;;28.56;36.24;101075.13;5033069;28;1993;-28
2023/09/02 05:47:31;;;;;;;;;;;;;;;28.56;36.69;101075.13;5038405;28;1044;-31
2023/09/02 05:49:57;;;;;;;;;;;;;;;28.53;36.88;101071.97;5038210;28;1138;-27
2023/09/02 05:52:23;;;;;;;;;;;;;;;28.56;36.94;101072.41;5032802;28;2433;-28
2023/09/02 05:54:48;;;;;;;;;;;;;;;28.50;36.90;101081.28;5024751;28;1093;-28
2023/09/02 05:57:14;;;;;;;;;;;;;;;28.42;36.45;101071.38;5031131;28;1392;-32
2023/09/02 05:59:39;;;;;;;;;;;;;;;28.39;37.18;101077.19;5031285;28;1207;-26
2023/09/02 06:02:05;;;;;;;;;;;;;;;28.36;37.41;101069.44;5077335;28;1131;-28
2023/09/02 06:04:30;;;;;;;;;;;;;;;28.35;37.57;101078.56;5077329;28;1090;-27
2023/09/02 06:06:56;;;;;;;;;;;;;;;28.41;37.04;101085.09;5064808;28;1902;-30
2023/09/02 06:09:26;;;;;;;;;;;;;;;28.52;36.29;101079.25;5072565;28;1157;-30
2023/09/02 06:11:52;;;;;;;;;;;;;;;28.53;36.17;101082.81;5067765;28;1143;-28
2023/09/02 06:14:17;;;;;;;;;;;;;;;28.46;36.54;101082.69;5066205;28;1257;-25
2023/09/02 06:16:43;;;;;;;;;;;;;;;28.37;36.62;101073.81;5076257;28;1259;-26
2023/09/02 06:19:09;;;;;;;;;;;;;;;28.43;36.22;101083.88;5061254;28;1039;-27
2023/09/02 06:21:34;;;;;;;;;;;;;;;28.43;36.17;101091.16;5073013;28;1000;-27
2023/09/02 06:24:00;;;;;;;;;;;;;;;28.46;36.09;101083.50;5077295;28;2468;-26
2023/09/02 06:26:26;;;;;;;;;;;;;;;28.51;36.21;101088.38;5077064;28;2001;-27
2023/09/02 06:28:51;;;;;;;;;;;;;;;28.65;36.25;101091.28;5068261;28;883;-27
2023/09/02 06:31:17;;;;;;;;;;;;;;;28.64;36.07;101101.28;5059581;28;992;-27
2023/09/02 06:33:42;;;;;;;;;;;;;;;28.54;36.41;101096.16;5077022;28;1023;-25
2023/09/02 06:36:09;;;;;;;;;;;;;;;28.49;36.12;101101.25;5077407;28;1027;-26
2023/09/02 06:38:34;;;;;;;;;;;;;;;28.59;36.75;101101.81;5061791;28;1047;-26
2023/09/02 06:41:00;;;;;;;;;;;;;;;28.51;36.19;101101.91;5060261;28;840;-29
2023/09/02 06:43:25;;;;;;;;;;;;;;;28.63;36.52;101101.47;5058502;28;1329;-27
2023/09/02 06:45:51;;;;;;;;;;;;;;;28.73;36.69;101111.00;5077103;28;1898;-25
2023/09/02 06:48:16;;;;;;;;;;;;;;;28.76;36.36;101098.94;5074328;28;1330;-28
2023/09/02 06:50:44;;;;;;;;;;;;;;;28.75;36.37;101104.53;5064025;28;1627;-29
2023/09/02 06:53:10;;;;;;;;;;;;;;;28.67;36.57;101103.63;5067170;28;2257;-26
2023/09/02 06:55:36;;;;;;;;;;;;;;;28.68;36.17;101105.28;5078669;28;999;-27
2023/09/02 06:58:01;;;;;;;;;;;;;;;28.71;36.52;101101.38;5072719;28;1051;-25
2023/09/02 07:00:27;;;;;;;;;;;;;;;28.69;36.95;101100.72;5072946;28;1107;-27
2023/09/02 07:02:53;;;;;;;;;;;;;;;28.72;37.03;101098.50;5069605;28;1175;-27
2023/09/02 07:05:18;;;;;;;;;;;;;;;28.71;37.52;101095.97;5068968;28;2060;-28
2023/09/02 07:07:44;;;;;;;;;;;;;;;28.87;36.97;101104.94;5075663;28;1300;-26
2023/09/02 07:10:11;;;;;;;;;;;;;;;28.91;37.58;101096.25;5064498;28;1099;-28
2023/09/02 07:12:37;;;;;;;;;;;;;;;28.71;37.28;101101.38;5075965;28;1123;-27
2023/09/02 07:15:02;;;;;;;;;;;;;;;28.74;37.44;101095.59;5076654;28;1113;-26
2023/09/02 07:17:28;;;;;;;;;;;;;;;28.80;36.88;101094.84;5076531;28;1091;-25
2023/09/02 07:19:54;;;;;;;;;;;;;;;28.97;37.35;101091.97;5076003;28;1162;-26
2023/09/02 07:22:20;;;;;;;;;;;;;;;28.84;37.29;101101.56;5074550;28;2338;-25
2023/09/02 07:24:45;;;;;;;;;;;;;;;28.91;37.15;101104.38;5056845;28;1031;-31
2023/09/02 07:27:11;;;;;;;;;;;;;;;28.82;37.73;101102.78;5071185;28;1996;-26
2023/09/02 07:29:36;;;;;;;;;;;;;;;28.85;38.04;101103.25;5068450;28;845;-27
2023/09/02 07:32:02;;;;;;;;;;;;;;;28.82;38.17;101092.81;5070552;28;1154;-25
2023/09/02 07:34:28;;;;;;;;;;;;;;;28.91;41.96;101101.66;5076443;28;1046;-27
2023/09/02 07:36:53;;;;;;;;;;;;;;;24.49;47.31;101094.22;5075900;28;1172;-27
2023/09/02 07:39:19;;;;;;;;;;;;;;;22.20;50.75;101084.72;5075614;28;1050;-27
2023/09/02 07:41:46;;;;;;;;;;;;;;;21.24;51.80;101082.41;5066953;28;1310;-27
2023/09/02 07:44:11;;;;;;;;;;;;;;;21.37;54.80;101081.31;5068679;28;1760;-30
2023/09/02 07:46:37;;;;;;;;;;;;;;;21.28;54.93;101082.97;5076280;28;2013;-27
2023/09/02 07:49:03;;;;;;;;;;;;;;;21.17;55.08;101083.91;5062750;28;1027;-29
2023/09/02 07:51:28;;;;;;;;;;;;;;;21.10;55.33;101094.31;5068393;28;988;-27
2023/09/02 07:53:54;;;;;;;;;;;;;;;20.93;56.08;101085.09;5070756;28;2640;-27
2023/09/02 07:56:19;;;;;;;;;;;;;;;20.80;56.29;101079.91;5061885;28;1317;-27
2023/09/02 07:58:48;;;;;;;;;;;;;;;20.72;56.52;101090.44;5058217;28;1269;-26
2023/09/02 08:01:14;;;;;;;;;;;;;;;22.21;50.90;101089.06;5067642;28;1329;-28
2023/09/02 08:03:39;;;;;;;;;;;;;;;21.99;50.68;101086.53;5055853;28;1067;-31
2023/09/02 08:06:06;;;;;;;;;;;;;;;22.01;50.63;101083.72;5071137;28;1905;-27
2023/09/02 08:08:31;;;;;;;;;;;;;;;22.75;52.37;101086.75;5076000;28;1129;-26
2023/09/02 08:11:00;;;;;;;;;;;;;;;25.55;42.63;101086.06;5060112;28;1066;-27
2023/09/02 08:13:26;;;;;;;;;;;;;;;26.46;41.82;101091.78;5065361;28;1035;-29
2023/09/02 08:15:51;;;;;;;;;;;;;;;26.31;45.66;101091.56;5065433;28;1288;-30
2023/09/02 08:18:17;;;;;;;;;;;;;;;26.92;40.48;101084.91;5061335;28;895;-26
2023/09/02 08:20:43;;;;;;;;;;;;;;;26.77;41.68;101089.19;5072515;28;988;-25
2023/09/02 08:23:08;;;;;;;;;;;;;;;27.46;39.24;101096.88;5075883;28;1743;-27
2023/09/02 08:25:34;;;;;;;;;;;;;;;25.41;44.25;101087.53;5065631;28;1983;-25
2023/09/02 08:27:59;;;;;;;;;;;;;;;23.63;53.93;101083.88;5079662;28;1043;-27
2023/09/02 08:30:25;;;;;;;;;;;;;;;26.35;42.75;101084.84;5076678;28;1042;-29
2023/09/02 08:32:51;;;;;;;;;;;;;;;23.63;51.45;101083.03;5060096;28;1075;-27
2023/09/02 08:35:17;;;;;;;;;;;;;;;25.92;44.40;101083.97;5076433;28;1072;-27
2023/09/02 08:37:42;;;;;;;;;;;;;;;24.29;48.92;101082.84;5079578;28;1194;-26
2023/09/02 08:40:08;;;;;;;;;;;;;;;25.27;46.74;101083.63;5065667;28;1071;-26
2023/09/02 08:42:35;;;;;;;;;;;;;;;25.63;45.94;101095.19;5079179;28;844;-27
2023/09/02 08:45:03;;;;;;;;;;;;;;;23.75;56.00;101073.75;5079676;28;1154;-26
2023/09/02 08:47:28;;;;;;;;;;;;;;;26.40;44.50;101085.19;5079120;28;1909;-28
2023/09/02 08:49:54;;;;;;;;;;;;;;;24.03;52.08;101080.91;5062136;28;1131;-27
2023/09/02 08:52:20;;;;;;;;;;;;;;;26.26;44.98;101087.53;5061779;28;2460;-30
2023/09/02 08:54:45;;;;;;;;;;;;;;;24.66;48.01;101089.81;5065245;28;837;-31
2023/09/02 08:57:11;;;;;;;;;;;;;;;24.98;49.07;101090.22;5061401;28;1102;-26
2023/09/02 08:59:37;;;;;;;;;;;;;;;26.86;43.42;101087.28;5061353;28;1187;-26
2023/09/02 09:02:02;;;;;;;;;;;;;;;24.11;52.61;101082.84;5079734;28;1008;-29
2023/09/02 09:04:34;;;;;;;;;;;;;;;26.54;44.08;101086.38;5061337;28;1155;-26
2023/09/02 09:07:02;;;;;;;;;;;;;;;24.46;48.12;101076.59;5051826;28;1922;-28
2023/09/02 09:09:28;;;;;;;;;;;;;;;23.87;53.27;101073.53;5072511;28;981;-26
2023/09/02 09:11:53;;;;;;;;;;;;;;;26.60;42.93;101082.97;5051134;28;1063;-26
2023/09/02 09:14:22;;;;;;;;;;;;;;;24.11;51.38;101080.97;5061333;28;1210;-26
2023/09/02 09:16:51;;;;;;;;;;;;;;;26.56;43.45;101078.91;5078664;28;1034;-28
2023/09/02 09:19:17;;;;;;;;;;;;;;;24.56;47.18;101089.06;5076320;28;1096;-26
2023/09/02 09:21:43;;;;;;;;;;;;;;;24.56;50.06;101075.63;5078938;28;992;-28
2023/09/02 09:24:12;;;;;;;;;;;;;;;26.85;42.11;101074.81;5061704;28;2557;-25
2023/09/02 09:26:38;;;;;;;;;;;;;;;23.95;48.27;101077.16;5069846;28;1905;-27
2023/09/02 09:29:04;;;;;;;;;;;;;;;25.92;44.53;101075.06;5078455;28;1431;-29
2023/09/02 09:31:29;;;;;;;;;;;;;;;25.37;44.35;101063.78;5050715;28;1064;-25
2023/09/02 09:33:58;;;;;;;;;;;;;;;23.89;50.19;101066.19;5069710;28;1198;-29
2023/09/02 09:36:24;;;;;;;;;;;;;;;26.68;42.33;101071.31;5067500;28;948;-28
2023/09/02 09:38:53;;;;;;;;;;;;;;;24.63;45.50;101078.53;5066435;28;1313;-26
2023/09/02 09:41:19;;;;;;;;;;;;;;;24.76;47.05;101073.56;5067003;28;897;-28
2023/09/02 09:43:51;;;;;;;;;;;;;;;27.15;40.38;101063.44;5070082;28;910;-28
2023/09/02 09:46:17;;;;;;;;;;;;;;;23.94;46.03;101059.31;5058526;28;1914;-26
2023/09/02 09:48:46;;;;;;;;;;;;;;;25.94;43.06;101064.94;5058171;28;1189;-28
2023/09/02 09:51:22;;;;;;;;;;;;;;;25.28;42.85;101053.00;5069373;28;861;-29
2023/09/02 09:53:48;;;;;;;;;;;;;;;24.00;49.43;101060.56;5077572;28;2350;-28
2023/09/02 09:56:13;;;;;;;;;;;;;;;26.83;40.46;101063.34;5077914;28;987;-25
2023/09/02 09:58:39;;;;;;;;;;;;;;;24.37;45.40;101055.16;5072194;28;1254;-30
2023/09/02 10:01:04;;;;;;;;;;;;;;;26.20;42.27;101055.84;5066622;28;1324;-26
2023/09/02 10:03:30;;;;;;;;;;;;;;;25.58;42.79;101057.94;5070926;28;892;-29
2023/09/02 10:05:59;;;;;;;;;;;;;;;23.92;48.81;101055.94;5071218;28;1902;-26
2023/09/02 10:08:24;;;;;;;;;;;;;;;26.71;40.79;101060.16;5078493;28;1067;-28
2023/09/02 10:10:50;;;;;;;;;;;;;;;25.23;42.87;101058.03;5078058;28;1047;-28
2023/09/02 10:13:16;;;;;;;;;;;;;;;24.40;45.82;101053.03;5078188;28;1079;-26
2023/09/02 10:15:42;;;;;;;;;;;;;;;23.59;49.45;101031.44;5059887;28;1046;-30
2023/09/02 10:18:07;;;;;;;;;;;;;;;25.97;42.96;101058.38;5077891;28;978;-26
2023/09/02 10:20:34;;;;;;;;;;;;;;;25.71;43.53;101064.75;5078087;28;999;-30
2023/09/02 10:23:03;;;;;;;;;;;;;;;24.32;46.86;101066.41;5071237;28;2622;-27
2023/09/02 10:25:29;;;;;;;;;;;;;;;24.67;47.92;101063.78;5071337;28;1971;-28
2023/09/02 10:28:04;;;;;;;;;;;;;;;24.62;49.09;101058.03;5077564;28;1051;-31
2023/09/02 10:30:42;;;;;;;;;;;;;;;24.50;48.95;101062.81;5075270;28;1084;-28
2023/09/02 10:33:31;;;;;;;;;;;;;;;26.77;45.01;101072.13;5051371;28;1148;-30
2023/09/02 10:35:59;;;;;;;;;;;;;;;25.85;46.88;101076.72;5077003;28;1091;-28
2023/09/02 10:38:24;;;;;;;;;;;;;;;25.66;46.61;101079.53;5060580;28;1123;-30
2023/09/02 10:40:53;;;;;;;;;;;;;;;25.13;48.75;101070.75;5059509;28;1123;-29
2023/09/02 10:43:18;;;;;;;;;;;;;;;25.13;49.42;101073.44;5059220;28;886;-28
2023/09/02 10:45:44;;;;;;;;;;;;;;;25.80;50.10;101072.69;5077246;28;1979;-29
2023/09/02 10:48:10;;;;;;;;;;;;;;;25.29;50.63;101072.69;5077526;28;1112;-30
2023/09/02 10:50:35;;;;;;;;;;;;;;;25.52;51.51;101078.31;5059412;28;1117;-27
2023/09/02 10:53:01;;;;;;;;;;;;;;;25.76;50.50;101078.53;5058773;28;1990;-27
2023/09/02 10:55:31;;;;;;;;;;;;;;;25.60;50.91;101073.94;5066025;28;1250;-27
2023/09/02 10:57:56;;;;;;;;;;;;;;;25.44;50.45;101072.91;5053156;28;1055;-27
2023/09/02 11:00:23;;;;;;;;;;;;;;;25.24;50.82;101064.25;5059536;28;1143;-25
2023/09/02 11:02:52;;;;;;;;;;;;;;;25.19;51.76;101075.50;5077290;28;1251;-27
2023/09/02 11:05:18;;;;;;;;;;;;;;;25.15;51.93;101068.75;5068789;28;1972;-28
2023/09/02 11:07:44;;;;;;;;;;;;;;;25.20;52.18;101069.13;5087000;28;920;-27
2023/09/02 11:10:10;;;;;;;;;;;;;;;24.55;53.13;101072.13;5077133;28;1165;-25
2023/09/02 11:12:54;;;;;;;;;;;;;;;26.75;48.25;101066.06;5077019;28;1011;-27
2023/09/02 11:15:20;;;;;;;;;;;;;;;25.01;50.63;101062.97;5077107;28;1027;-28
2023/09/02 11:17:46;;;;;;;;;;;;;;;25.39;50.81;101059.09;5076571;28;1099;-25
2023/09/02 11:20:12;;;;;;;;;;;;;;;25.60;51.24;101055.09;5076783;28;1106;-27
2023/09/02 11:22:50;;;;;;;;;;;;;;;25.67;50.92;101066.94;5072785;28;2505;-28
2023/09/02 11:25:35;;;;;;;;;;;;;;;25.71;51.77;101060.19;5057125;28;1910;-31
2023/09/02 11:28:01;;;;;;;;;;;;;;;25.91;51.32;101054.47;5064717;28;992;-26
2023/09/02 11:30:28;;;;;;;;;;;;;;;26.19;50.74;101067.66;5074739;28;1093;-27
2023/09/02 11:32:54;;;;;;;;;;;;;;;24.76;51.65;101056.59;5065235;28;1047;-29
2023/09/02 11:35:31;;;;;;;;;;;;;;;25.94;50.31;101070.34;5058590;28;1151;-26
2023/09/02 11:37:56;;;;;;;;;;;;;;;24.39;52.88;101064.75;5067030;28;1583;-25
2023/09/02 11:40:23;;;;;;;;;;;;;;;25.37;52.13;101072.72;5069856;28;1040;-26
2023/09/02 11:42:48;;;;;;;;;;;;;;;25.05;53.49;101061.66;5076087;28;1056;-25
2023/09/02 11:45:14;;;;;;;;;;;;;;;27.18;48.54;101062.22;5062996;28;1975;-26
2023/09/02 11:47:40;;;;;;;;;;;;;;;26.74;48.41;101069.78;5068561;28;1019;-25
2023/09/02 11:50:10;;;;;;;;;;;;;;;24.76;51.28;101073.56;5072342;28;1130;-28
2023/09/02 11:52:36;;;;;;;;;;;;;;;24.05;52.18;101068.16;5071021;28;2406;-26
2023/09/02 11:55:11;;;;;;;;;;;;;;;23.83;52.64;101057.72;5064288;28;992;-27
2023/09/02 11:57:36;;;;;;;;;;;;;;;25.94;49.76;101062.25;5055932;28;1079;-29
2023/09/02 12:00:02;;;;;;;;;;;;;;;25.55;49.14;101067.22;5068679;28;1149;-27
2023/09/02 12:02:30;;;;;;;;;;;;;;;24.38;52.49;101071.16;5067433;28;1019;-29
2023/09/02 12:04:56;;;;;;;;;;;;;;;23.92;53.43;101057.81;5076168;28;1191;-29
2023/09/02 12:07:21;;;;;;;;;;;;;;;23.85;53.28;101063.81;5075640;28;1977;-26
2023/09/02 12:09:47;;;;;;;;;;;;;;;25.05;52.99;101071.56;5075504;28;1086;-27
2023/09/02 12:12:12;;;;;;;;;;;;;;;25.77;51.03;101067.63;5064318;28;1031;-27
2023/09/02 12:14:40;;;;;;;;;;;;;;;24.88;52.66;101067.91;5060277;28;1170;-27
2023/09/02 12:17:06;;;;;;;;;;;;;;;24.01;54.03;101058.69;5075785;28;1167;-30
2023/09/02 12:19:32;;;;;;;;;;;;;;;23.95;54.57;101061.03;5052995;28;964;-27
2023/09/02 12:21:57;;;;;;;;;;;;;;;24.06;54.59;101068.00;5037897;28;1199;-28
2023/09/02 12:24:23;;;;;;;;;;;;;;;25.48;54.91;101070.72;5055790;28;2572;-27
2023/09/02 12:26:49;;;;;;;;;;;;;;;27.26;49.10;101076.53;5066900;28;1977;-26
2023/09/02 12:29:17;;;;;;;;;;;;;;;24.60;54.32;101081.53;5075112;28;1077;-26
2023/09/02 12:31:59;;;;;;;;;;;;;;;24.29;53.65;101075.59;5075569;28;1027;-29
2023/09/02 12:34:25;;;;;;;;;;;;;;;23.76;54.66;101077.28;5063218;28;973;-27
2023/09/02 12:36:50;;;;;;;;;;;;;;;26.23;50.45;101073.53;5075425;28;1047;-25
2023/09/02 12:39:27;;;;;;;;;;;;;;;27.01;47.94;101079.34;5075893;28;1147;-28
2023/09/02 12:41:53;;;;;;;;;;;;;;;27.68;47.70;101080.88;5075624;28;1046;-26
2023/09/02 12:44:19;;;;;;;;;;;;;;;27.53;48.08;101078.94;5067070;28;959;-31